Yunco — CA5247 — position and weather

sailwx.info

Track history (hours):
 
Tides and Currents Weather Stations Pressure Air Temp Water Temp Dewpoint Dewpoint Depression Visibility Wind Speed Wind Dir Waves Ship Positions

Yunco

Last reported at 2018-Feb-23 19:49 UTC. Time now 2018-Feb-23 20:18 UTC.
Position S 32°46' W 071°31'.

Length 32 m; draft 6 m.

Type: Other ship. MMSI: 725001418.

Date/timePositionNaut miles runAvg speedWind from/ knotsBaromVisibWave heightAir tempDewpointWater temp
2018-Feb-23 19:49S 32°46' W 071°31'0 1.0
2018-Feb-23 19:29S 32°45' W 071°31'0 0.7
2018-Feb-23 18:58S 32°45' W 071°31'1 2.5
2018-Feb-23 18:31S 32°46' W 071°31'0 0.0
2018-Feb-23 18:01S 32°46' W 071°31'1 0.6
2018-Feb-23 15:57S 32°45' W 071°30'1 1.7
2018-Feb-23 15:27S 32°46' W 071°31'1 1.7
2018-Feb-23 14:59S 32°46' W 071°31'0 0.0
2018-Feb-23 14:30S 32°46' W 071°31'0 0.0
2018-Feb-23 14:00S 32°46' W 071°31'0 0.0
2018-Feb-23 13:23S 32°46' W 071°31'1 1.2
2018-Feb-23 12:12S 32°46' W 071°30'0 1.8
2018-Feb-23 11:59S 32°46' W 071°30'1 2.6
2018-Feb-23 11:31S 32°44' W 071°31'2 3.8
2018-Feb-23 11:00S 32°46' W 071°31'0 0.0
2018-Feb-23 10:30S 32°46' W 071°31'0 0.0
2018-Feb-23 08:56S 32°46' W 071°31'0 0.0
2018-Feb-23 08:30S 32°46' W 071°31'0 0.0
2018-Feb-23 07:59S 32°46' W 071°31'0 0.0
2018-Feb-23 06:17S 32°46' W 071°31'0 0.0
2018-Feb-23 06:00S 32°46' W 071°31'0 0.0
2018-Feb-23 05:26S 32°46' W 071°31'0 0.0
2018-Feb-23 04:58S 32°46' W 071°31'0 0.0
2018-Feb-23 04:30S 32°46' W 071°31'0 0.0
2018-Feb-23 04:00S 32°46' W 071°31'3 4.1
2018-Feb-23 03:20S 32°47' W 071°34'3 8.4
2018-Feb-23 02:57S 32°50' W 071°36'4 8.6
2018-Feb-23 02:30S 32°54' W 071°37'4 8.3
2018-Feb-23 01:58S 32°58' W 071°37'4 8.2
2018-Feb-23 01:30S 33°02' W 071°37'0 0.7
2018-Feb-23 00:53S 33°02' W 071°37'0 0.0
2018-Feb-23 00:29S 33°02' W 071°37'0 0.0
2018-Feb-22 23:57S 33°02' W 071°37'0 0.7
2018-Feb-22 23:30S 33°02' W 071°37'0 0.3
2018-Feb-22 22:53S 33°02' W 071°37'0 0.7
2018-Feb-22 22:31S 33°02' W 071°37'0 0.1
2018-Feb-22 21:58S 33°02' W 071°37'0 0.0
2018-Feb-22 21:31S 33°02' W 071°37'0 0.0
2018-Feb-22 20:56S 33°02' W 071°37'0 0.0
2018-Feb-22 20:30S 33°02' W 071°37'0 0.0
2018-Feb-22 20:00S 33°02' W 071°37'0 0.0
2018-Feb-22 19:31S 33°02' W 071°37'0 0.0
2018-Feb-22 18:56S 33°02' W 071°37'0 0.3
2018-Feb-22 18:31S 33°02' W 071°37'0 0.7
2018-Feb-22 18:00S 33°02' W 071°37'0 0.1
2018-Feb-22 17:19S 33°02' W 071°37'0 0.4
2018-Feb-22 16:54S 33°02' W 071°37'0 0.2
2018-Feb-22 16:30S 33°02' W 071°37'0 0.8
2018-Feb-22 16:00S 33°02' W 071°37'0 0.0
2018-Feb-22 15:30S 33°02' W 071°37'0 0.0
2018-Feb-22 15:00S 33°02' W 071°37'0 0.0
2018-Feb-22 14:29S 33°02' W 071°37'0 0.0
2018-Feb-22 13:58S 33°02' W 071°37'1 1.2
2018-Feb-22 13:29S 33°02' W 071°38'1 1.0
2018-Feb-22 12:58S 33°02' W 071°37'0 0.9
2018-Feb-22 12:31S 33°02' W 071°37'0 0.3
2018-Feb-22 12:00S 33°02' W 071°37'0 0.0
2018-Feb-22 11:30S 33°02' W 071°37'0 0.0
2018-Feb-22 11:01S 33°02' W 071°37'0 0.0
2018-Feb-22 10:28S 33°02' W 071°37'0 0.0
2018-Feb-22 10:00S 33°02' W 071°37'0 0.0
2018-Feb-22 09:31S 33°02' W 071°37'0 0.0
2018-Feb-22 09:00S 33°02' W 071°37'0 0.0
2018-Feb-22 08:31S 33°02' W 071°37'0 0.0
2018-Feb-22 07:57S 33°02' W 071°37'0 0.0
2018-Feb-22 07:31S 33°02' W 071°37'0 0.0
2018-Feb-22 06:57S 33°02' W 071°37'0 0.0
2018-Feb-22 06:29S 33°02' W 071°37'1 0.6
2018-Feb-22 05:17S 33°02' W 071°37'0 1.1
2018-Feb-22 04:56S 33°02' W 071°37'0 0.4
2018-Feb-22 04:10S 33°02' W 071°38'0 0.1
2018-Feb-22 03:46S 33°02' W 071°38'0 1.6
2018-Feb-22 03:31S 33°02' W 071°37'0 0.0
2018-Feb-22 02:56S 33°02' W 071°37'0 0.0
2018-Feb-22 01:44S 33°02' W 071°37'0 0.0
2018-Feb-22 01:30S 33°02' W 071°37'0 0.0
2018-Feb-22 00:07S 33°02' W 071°37'0 0.0
2018-Feb-22 00:00S 33°02' W 071°37'0 0.0
2018-Feb-21 23:24S 33°02' W 071°37'0 0.0
2018-Feb-21 23:01S 33°02' W 071°37'0 0.0
2018-Feb-21 22:31S 33°02' W 071°37'0 0.0
2018-Feb-21 22:01S 33°02' W 071°37'0 0.0
2018-Feb-21 21:30S 33°02' W 071°37'0 0.0
2018-Feb-21 21:00S 33°02' W 071°37'0 0.0
2018-Feb-21 20:27S 33°02' W 071°37'0 0.0
2018-Feb-21 19:58S 33°02' W 071°37'0 0.0
2018-Feb-21 19:22S 33°02' W 071°37'0 0.0
2018-Feb-21 18:50S 33°02' W 071°37'0 0.0
2018-Feb-21 18:29S 33°02' W 071°37'1 1.3
2018-Feb-21 18:00S 33°02' W 071°38'1 1.5
2018-Feb-21 17:30S 33°02' W 071°37'1 0.9
2018-Feb-21 16:50S 33°02' W 071°37'0 0.8
2018-Feb-21 16:30S 33°02' W 071°37'0 0.0
2018-Feb-21 16:00S 33°02' W 071°37'0 0.0
2018-Feb-21 15:31S 33°02' W 071°37'0 0.0
2018-Feb-21 15:00S 33°02' W 071°37'0 0.0
2018-Feb-21 14:30S 33°02' W 071°37'0 0.0
2018-Feb-21 14:01S 33°02' W 071°37'0 0.0
2018-Feb-21 13:30S 33°02' W 071°37'0 0.0
2018-Feb-21 13:00S 33°02' W 071°37'0 0.0
2018-Feb-21 12:30S 33°02' W 071°37'0 0.0
2018-Feb-21 12:01S 33°02' W 071°37'0 0.0
2018-Feb-21 11:28S 33°02' W 071°37'0 0.0
2018-Feb-21 10:59S 33°02' W 071°37'0 0.0
2018-Feb-21 10:30S 33°02' W 071°37'0 0.0
2018-Feb-21 09:50S 33°02' W 071°37'0 0.0
2018-Feb-21 09:29S 33°02' W 071°37'0 0.0
2018-Feb-21 08:58S 33°02' W 071°37'0 0.0
2018-Feb-21 07:41S 33°02' W 071°37'0 0.0
2018-Feb-21 07:30S 33°02' W 071°37'0 0.0
2018-Feb-21 05:46S 33°02' W 071°37'0 0.0
2018-Feb-21 05:26S 33°02' W 071°37'0 0.0
2018-Feb-21 02:53S 33°02' W 071°37'0 0.0
2018-Feb-21 02:21S 33°02' W 071°37'0 0.0
2018-Feb-21 00:10S 33°02' W 071°37'0 0.0
2018-Feb-20 21:25S 33°02' W 071°37'0 0.0
2018-Feb-20 20:59S 33°02' W 071°37'0 0.0
2018-Feb-20 20:29S 33°02' W 071°37'0 0.0
2018-Feb-20 19:59S 33°02' W 071°37'0 0.0
2018-Feb-20 19:29S 33°02' W 071°37'0 0.0
2018-Feb-20 18:58S 33°02' W 071°37'1 0.6
2018-Feb-20 17:31S 33°02' W 071°37'0 7.5
2018-Feb-20 17:31S 33°02' W 071°36'1 0.8
2018-Feb-20 16:22S 33°02' W 071°37'0 0.6
2018-Feb-20 15:53S 33°02' W 071°37'0 0.5
2018-Feb-20 15:18S 33°02' W 071°37'0 0.1
2018-Feb-20 14:54S 33°02' W 071°37'0 0.0
2018-Feb-20 14:30S 33°02' W 071°37'0 0.0
2018-Feb-20 13:50S 33°02' W 071°37'0 0.0
2018-Feb-20 13:26S 33°02' W 071°37'0 0.0
2018-Feb-20 12:44S 33°02' W 071°37'0 0.0
2018-Feb-20 12:28S 33°02' W 071°37'0 0.0
2018-Feb-20 11:44S 33°02' W 071°37'0 0.0
2018-Feb-20 11:28S 33°02' W 071°37'0 0.0
2018-Feb-20 10:57S 33°02' W 071°37'1 0.6
2018-Feb-20 09:44S 33°02' W 071°37'1 1.6
2018-Feb-20 09:25S 33°02' W 071°37'0 0.1
2018-Feb-20 08:55S 33°02' W 071°37'0 0.0
2018-Feb-20 04:30S 33°02' W 071°37'1 1.2
2018-Feb-20 04:00S 33°02' W 071°37'4 8.1
2018-Feb-20 03:30S 32°58' W 071°37'4 8.4
2018-Feb-20 03:01S 32°54' W 071°36'4 8.4
2018-Feb-20 02:31S 32°50' W 071°35'4 8.2
2018-Feb-20 01:59S 32°45' W 071°33'2 2.2
2018-Feb-20 01:02S 32°46' W 071°31'0 0.1
2018-Feb-20 00:59S 32°46' W 071°31'0 0.0
2018-Feb-19 23:40S 32°46' W 071°31'0 0.0
2018-Feb-19 23:23S 32°46' W 071°31'0 0.0
2018-Feb-19 22:59S 32°46' W 071°31'0 0.0
2018-Feb-19 22:18S 32°46' W 071°31'0 0.0
2018-Feb-19 21:09S 32°46' W 071°31'0 0.0
2018-Feb-19 16:35S 32°46' W 071°31'0 0.0
2018-Feb-19 15:05S 32°46' W 071°31'0 0.0
2018-Feb-19 14:52S 32°46' W 071°31'0 0.0
2018-Feb-19 14:28S 32°46' W 071°31'0 0.0
2018-Feb-19 12:53S 32°46' W 071°31'0 0.0
2018-Feb-19 12:30S 32°46' W 071°31'0 0.0
2018-Feb-19 11:44S 32°46' W 071°31'2 1.6
2018-Feb-19 10:45S 32°46' W 071°30'2 1.4
2018-Feb-19 09:34S 32°46' W 071°31'0 0.1
2018-Feb-19 09:28S 32°46' W 071°31'0 0.0
2018-Feb-19 08:59S 32°46' W 071°31'0 0.0
2018-Feb-19 08:07S 32°46' W 071°31'0 0.0
2018-Feb-19 07:38S 32°46' W 071°31'0 0.0
2018-Feb-19 07:30S 32°46' W 071°31'0 0.0
2018-Feb-19 06:58S 32°46' W 071°31'0 0.0
2018-Feb-19 06:23S 32°46' W 071°31'0 0.0
2018-Feb-19 05:47S 32°46' W 071°31'0 0.0
2018-Feb-19 03:04S 32°46' W 071°31'0 0.0
2018-Feb-19 02:49S 32°46' W 071°31'0 0.0
2018-Feb-19 02:28S 32°46' W 071°31'0 0.0
2018-Feb-19 01:55S 32°46' W 071°31'0 0.0
2018-Feb-19 01:28S 32°46' W 071°31'0 0.0
2018-Feb-19 00:59S 32°46' W 071°31'0 0.0
2018-Feb-19 00:31S 32°46' W 071°31'0 0.0
2018-Feb-18 23:59S 32°46' W 071°31'0 0.0
2018-Feb-18 23:11S 32°46' W 071°31'0 0.0
2018-Feb-18 22:57S 32°46' W 071°31'0 0.0
2018-Feb-18 20:40S 32°46' W 071°31'0 0.0
2018-Feb-18 20:30S 32°46' W 071°31'4 7.4
2018-Feb-18 19:57S 32°46' W 071°36'5 6.9
2018-Feb-18 19:12S 32°46' W 071°30'0 0.4
2018-Feb-18 19:00S 32°46' W 071°30'0 0.3
2018-Feb-18 18:30S 32°46' W 071°30'1 1.9
2018-Feb-18 17:58S 32°46' W 071°31'0 0.0
2018-Feb-18 17:31S 32°46' W 071°31'0 0.0
2018-Feb-18 16:59S 32°46' W 071°31'0 0.0
2018-Feb-18 16:31S 32°46' W 071°31'0 0.0
2018-Feb-18 15:59S 32°46' W 071°31'0 0.0
2018-Feb-18 15:28S 32°46' W 071°31'0 0.0
2018-Feb-18 15:00S 32°46' W 071°31'0 0.0
2018-Feb-18 14:30S 32°46' W 071°31'0 0.0
2018-Feb-18 14:01S 32°46' W 071°31'0 0.0
2018-Feb-18 13:30S 32°46' W 071°31'0 0.0
2018-Feb-18 12:58S 32°46' W 071°31'0 0.0
2018-Feb-18 12:17S 32°46' W 071°31'0 0.1
2018-Feb-18 12:00S 32°46' W 071°31'0 0.0
2018-Feb-18 11:31S 32°46' W 071°31'1 2.2
2018-Feb-18 10:57S 32°45' W 071°30'0 0.0
2018-Feb-18 10:31S 32°45' W 071°30'1 0.5
2018-Feb-18 08:10S 32°46' W 071°31'0 0.0
2018-Feb-18 07:59S 32°46' W 071°31'0 0.0
2018-Feb-18 07:30S 32°46' W 071°31'0 0.0
2018-Feb-18 07:01S 32°46' W 071°31'0 0.0
2018-Feb-18 03:19S 32°46' W 071°31'0 0.0
2018-Feb-18 03:00S 32°46' W 071°31'0 0.0
2018-Feb-17 23:10S 32°46' W 071°31'0 0.0
2018-Feb-17 22:07S 32°46' W 071°31'0 0.0
2018-Feb-17 19:48S 32°46' W 071°31'0 0.0
2018-Feb-17 19:20S 32°46' W 071°31'0 0.0
2018-Feb-17 18:59S 32°46' W 071°31'0 0.0
2018-Feb-17 18:29S 32°46' W 071°31'0 0.0
2018-Feb-17 18:00S 32°46' W 071°31'0 0.0
2018-Feb-17 17:30S 32°46' W 071°31'0 0.0
2018-Feb-17 16:44S 32°46' W 071°31'0 0.0
2018-Feb-17 16:28S 32°46' W 071°31'0 0.0
2018-Feb-17 16:00S 32°46' W 071°31'0 0.0
2018-Feb-17 15:30S 32°46' W 071°31'0 0.0
2018-Feb-17 14:51S 32°46' W 071°31'0 0.0
2018-Feb-17 14:24S 32°46' W 071°31'0 0.0
2018-Feb-17 13:55S 32°46' W 071°31'0 0.0
2018-Feb-17 13:24S 32°46' W 071°31'1 0.8
2018-Feb-17 11:49S 32°45' W 071°30'0 0.9
2018-Feb-17 11:30S 32°46' W 071°30'1 1.7
2018-Feb-17 11:00S 32°45' W 071°31'1 2.2
2018-Feb-17 10:30S 32°46' W 071°31'0 0.0
2018-Feb-17 10:00S 32°46' W 071°31'0 0.0
2018-Feb-17 09:29S 32°46' W 071°31'0 0.0
2018-Feb-17 09:00S 32°46' W 071°31'0 0.0
2018-Feb-17 06:50S 32°46' W 071°31'0 0.0
2018-Feb-17 05:46S 32°46' W 071°31'1 0.1
2018-Feb-16 21:58S 32°46' W 071°30'1 1.2
2018-Feb-16 21:24S 32°45' W 071°30'1 1.9
2018-Feb-16 21:00S 32°45' W 071°30'0 0.1
2018-Feb-16 19:51S 32°45' W 071°30'0 0.1
2018-Feb-16 19:22S 32°45' W 071°30'1 0.5
2018-Feb-16 17:24S 32°46' W 071°30'1 2.7
2018-Feb-16 17:00S 32°46' W 071°31'1 0.2
2018-Feb-16 14:16S 32°45' W 071°31'1 3.2
2018-Feb-16 14:00S 32°45' W 071°32'1 1.5
2018-Feb-16 13:22S 32°46' W 071°31'0 1.2
2018-Feb-16 12:58S 32°46' W 071°31'0 0.0
2018-Feb-16 12:27S 32°46' W 071°31'0 0.0
2018-Feb-16 12:00S 32°46' W 071°31'0 0.0
2018-Feb-16 11:26S 32°46' W 071°31'0 0.0
2018-Feb-16 11:00S 32°46' W 071°31'0 0.0
2018-Feb-16 10:29S 32°46' W 071°31'0 0.0
2018-Feb-16 02:18S 32°46' W 071°31'1 0.3
2018-Feb-15 23:13S 32°45' W 071°30'0 0.2
2018-Feb-15 23:00S 32°45' W 071°30'0 0.1
2018-Feb-15 22:29S 32°45' W 071°30'0 0.2
2018-Feb-15 22:00S 32°45' W 071°30'0 0.0
2018-Feb-15 21:27S 32°45' W 071°30'0 0.2
2018-Feb-15 21:00S 32°45' W 071°30'0 0.2
2018-Feb-15 20:27S 32°45' W 071°30'0 0.1
2018-Feb-15 19:59S 32°45' W 071°30'0 0.1
2018-Feb-15 19:30S 32°45' W 071°30'0 0.2
2018-Feb-15 18:58S 32°45' W 071°30'0 0.2
2018-Feb-15 18:30S 32°45' W 071°30'0 0.1
2018-Feb-15 17:59S 32°45' W 071°30'0 0.0
2018-Feb-15 17:28S 32°45' W 071°30'0 0.0
2018-Feb-15 16:58S 32°45' W 071°30'0 0.1
2018-Feb-15 16:30S 32°45' W 071°30'0 0.1
2018-Feb-15 15:58S 32°45' W 071°30'0 0.0
2018-Feb-15 15:30S 32°45' W 071°30'0 0.1
2018-Feb-15 15:00S 32°45' W 071°30'0 0.1
2018-Feb-15 14:29S 32°45' W 071°30'0 0.1
2018-Feb-15 14:00S 32°45' W 071°30'0 0.1
2018-Feb-15 13:31S 32°45' W 071°30'0 0.2
2018-Feb-15 13:00S 32°45' W 071°30'0 0.1
2018-Feb-15 12:30S 32°45' W 071°30'0 0.2
2018-Feb-15 11:44S 32°45' W 071°31'0 1.0
2018-Feb-15 11:27S 32°45' W 071°30'2 2.9
2018-Feb-15 10:55S 32°46' W 071°31'0 0.0
2018-Feb-15 10:30S 32°46' W 071°31'4 0.6
2018-Feb-15 02:42S 32°48' W 071°36'2 9.0
2018-Feb-15 02:29S 32°50' W 071°36'4 9.2
2018-Feb-15 02:00S 32°55' W 071°37'5 9.6
2018-Feb-15 01:28S 32°60' W 071°37'2 3.5
2018-Feb-15 00:52S 33°02' W 071°38'0 0.4
2018-Feb-15 00:21S 33°02' W 071°37'0 0.9
2018-Feb-14 23:49S 33°02' W 071°37'0 0.1
2018-Feb-14 23:29S 33°02' W 071°37'0 0.0
2018-Feb-14 23:00S 33°02' W 071°37'0 0.0
2018-Feb-14 22:30S 33°02' W 071°37'0 0.0
2018-Feb-14 22:00S 33°02' W 071°37'0 0.0
2018-Feb-14 21:28S 33°02' W 071°37'0 0.0
2018-Feb-14 21:00S 33°02' W 071°37'1 1.0
2018-Feb-14 20:28S 33°02' W 071°37'0 0.6
2018-Feb-14 19:56S 33°02' W 071°37'0 0.9
2018-Feb-14 19:30S 33°02' W 071°37'0 0.1
2018-Feb-14 18:55S 33°02' W 071°37'0 0.0
2018-Feb-14 18:30S 33°02' W 071°37'0 0.0
2018-Feb-14 18:00S 33°02' W 071°37'0 0.0
2018-Feb-14 17:30S 33°02' W 071°37'0 0.8
2018-Feb-14 16:58S 33°02' W 071°38'3 5.3
2018-Feb-14 16:30S 32°60' W 071°37'4 8.8
2018-Feb-14 16:00S 32°55' W 071°36'4 8.8
2018-Feb-14 15:30S 32°51' W 071°35'5 8.9
2018-Feb-14 14:59S 32°47' W 071°34'3 5.1
2018-Feb-14 14:30S 32°46' W 071°31'1 1.9
2018-Feb-14 14:00S 32°46' W 071°31'0 0.0
2018-Feb-14 13:30S 32°46' W 071°31'0 0.0
2018-Feb-14 13:00S 32°46' W 071°31'1 1.4
2018-Feb-14 12:29S 32°46' W 071°31'1 1.3
2018-Feb-14 12:00S 32°46' W 071°31'0 0.4
2018-Feb-14 11:30S 32°46' W 071°31'0 0.0
2018-Feb-14 11:00S 32°46' W 071°31'0 0.0
2018-Feb-14 10:30S 32°46' W 071°31'0 0.0
2018-Feb-14 10:00S 32°46' W 071°31'0 0.0
2018-Feb-14 09:26S 32°46' W 071°31'0 0.0
2018-Feb-14 09:00S 32°46' W 071°31'0 0.0
2018-Feb-14 08:30S 32°46' W 071°31'0 0.0
2018-Feb-14 07:51S 32°46' W 071°31'0 0.0
2018-Feb-14 07:30S 32°46' W 071°31'0 0.0
2018-Feb-14 06:59S 32°46' W 071°31'0 0.0
2018-Feb-14 06:28S 32°46' W 071°31'0 0.0
2018-Feb-14 05:59S 32°46' W 071°31'0 0.0
2018-Feb-14 05:29S 32°46' W 071°31'0 0.0
2018-Feb-14 05:00S 32°46' W 071°31'0 0.0
2018-Feb-14 04:30S 32°46' W 071°31'0 0.0
2018-Feb-14 04:00S 32°46' W 071°31'0 0.0
2018-Feb-14 03:30S 32°46' W 071°31'0 0.0
2018-Feb-14 02:57S 32°46' W 071°31'0 0.0
2018-Feb-14 02:30S 32°46' W 071°31'0 0.0
2018-Feb-14 01:58S 32°46' W 071°31'0 0.0
2018-Feb-14 01:30S 32°46' W 071°31'0 0.0
2018-Feb-14 01:00S 32°46' W 071°31'0 0.0
2018-Feb-14 00:27S 32°46' W 071°31'0 0.0
2018-Feb-14 00:01S 32°46' W 071°31'0 0.0
2018-Feb-13 23:22S 32°46' W 071°31'0 0.0
2018-Feb-13 23:00S 32°46' W 071°31'0 0.0
2018-Feb-13 22:30S 32°46' W 071°31'0 0.0
2018-Feb-13 22:00S 32°46' W 071°31'0 0.0
2018-Feb-13 21:30S 32°46' W 071°31'0 0.0
2018-Feb-13 20:57S 32°46' W 071°31'0 0.0
2018-Feb-13 20:16S 32°46' W 071°31'0 0.0
2018-Feb-13 20:00S 32°46' W 071°31'  
Track history (hours):
 
Tides and Currents Weather Stations Pressure Air Temp Water Temp Dewpoint Dewpoint Depression Visibility Wind Speed Wind Dir Waves Ship Positions

Yunco

Last reported at 2018-Feb-23 19:49 UTC. Time now 2018-Feb-23 20:18 UTC.
Position S 32°46' W 071°31'.

Length 32 m; draft 6 m.

Type: Other ship. MMSI: 725001418.

Date/timePositionNaut miles runAvg speedWind from/ knotsBaromVisibWave heightAir tempDewpointWater temp
2018-Feb-23 19:49S 32°46' W 071°31'0 1.0
2018-Feb-23 19:29S 32°45' W 071°31'0 0.7
2018-Feb-23 18:58S 32°45' W 071°31'1 2.5
2018-Feb-23 18:31S 32°46' W 071°31'0 0.0
2018-Feb-23 18:01S 32°46' W 071°31'1 0.6
2018-Feb-23 15:57S 32°45' W 071°30'1 1.7
2018-Feb-23 15:27S 32°46' W 071°31'1 1.7
2018-Feb-23 14:59S 32°46' W 071°31'0 0.0
2018-Feb-23 14:30S 32°46' W 071°31'0 0.0
2018-Feb-23 14:00S 32°46' W 071°31'0 0.0
2018-Feb-23 13:23S 32°46' W 071°31'1 1.2
2018-Feb-23 12:12S 32°46' W 071°30'0 1.8
2018-Feb-23 11:59S 32°46' W 071°30'1 2.6
2018-Feb-23 11:31S 32°44' W 071°31'2 3.8
2018-Feb-23 11:00S 32°46' W 071°31'0 0.0
2018-Feb-23 10:30S 32°46' W 071°31'0 0.0
2018-Feb-23 08:56S 32°46' W 071°31'0 0.0
2018-Feb-23 08:30S 32°46' W 071°31'0 0.0
2018-Feb-23 07:59S 32°46' W 071°31'0 0.0
2018-Feb-23 06:17S 32°46' W 071°31'0 0.0
2018-Feb-23 06:00S 32°46' W 071°31'0 0.0
2018-Feb-23 05:26S 32°46' W 071°31'0 0.0
2018-Feb-23 04:58S 32°46' W 071°31'0 0.0
2018-Feb-23 04:30S 32°46' W 071°31'0 0.0
2018-Feb-23 04:00S 32°46' W 071°31'3 4.1
2018-Feb-23 03:20S 32°47' W 071°34'3 8.4
2018-Feb-23 02:57S 32°50' W 071°36'4 8.6
2018-Feb-23 02:30S 32°54' W 071°37'4 8.3
2018-Feb-23 01:58S 32°58' W 071°37'4 8.2
2018-Feb-23 01:30S 33°02' W 071°37'0 0.7
2018-Feb-23 00:53S 33°02' W 071°37'0 0.0
2018-Feb-23 00:29S 33°02' W 071°37'0 0.0
2018-Feb-22 23:57S 33°02' W 071°37'0 0.7
2018-Feb-22 23:30S 33°02' W 071°37'0 0.3
2018-Feb-22 22:53S 33°02' W 071°37'0 0.7
2018-Feb-22 22:31S 33°02' W 071°37'0 0.1
2018-Feb-22 21:58S 33°02' W 071°37'0 0.0
2018-Feb-22 21:31S 33°02' W 071°37'0 0.0
2018-Feb-22 20:56S 33°02' W 071°37'0 0.0
2018-Feb-22 20:30S 33°02' W 071°37'0 0.0
2018-Feb-22 20:00S 33°02' W 071°37'0 0.0
2018-Feb-22 19:31S 33°02' W 071°37'0 0.0
2018-Feb-22 18:56S 33°02' W 071°37'0 0.3
2018-Feb-22 18:31S 33°02' W 071°37'0 0.7
2018-Feb-22 18:00S 33°02' W 071°37'0 0.1
2018-Feb-22 17:19S 33°02' W 071°37'0 0.4
2018-Feb-22 16:54S 33°02' W 071°37'0 0.2
2018-Feb-22 16:30S 33°02' W 071°37'0 0.8
2018-Feb-22 16:00S 33°02' W 071°37'0 0.0
2018-Feb-22 15:30S 33°02' W 071°37'0 0.0
2018-Feb-22 15:00S 33°02' W 071°37'0 0.0
2018-Feb-22 14:29S 33°02' W 071°37'0 0.0
2018-Feb-22 13:58S 33°02' W 071°37'1 1.2
2018-Feb-22 13:29S 33°02' W 071°38'1 1.0
2018-Feb-22 12:58S 33°02' W 071°37'0 0.9
2018-Feb-22 12:31S 33°02' W 071°37'0 0.3
2018-Feb-22 12:00S 33°02' W 071°37'0 0.0
2018-Feb-22 11:30S 33°02' W 071°37'0 0.0
2018-Feb-22 11:01S 33°02' W 071°37'0 0.0
2018-Feb-22 10:28S 33°02' W 071°37'0 0.0
2018-Feb-22 10:00S 33°02' W 071°37'0 0.0
2018-Feb-22 09:31S 33°02' W 071°37'0 0.0
2018-Feb-22 09:00S 33°02' W 071°37'0 0.0
2018-Feb-22 08:31S 33°02' W 071°37'0 0.0
2018-Feb-22 07:57S 33°02' W 071°37'0 0.0
2018-Feb-22 07:31S 33°02' W 071°37'0 0.0
2018-Feb-22 06:57S 33°02' W 071°37'0 0.0
2018-Feb-22 06:29S 33°02' W 071°37'1 0.6
2018-Feb-22 05:17S 33°02' W 071°37'0 1.1
2018-Feb-22 04:56S 33°02' W 071°37'0 0.4
2018-Feb-22 04:10S 33°02' W 071°38'0 0.1
2018-Feb-22 03:46S 33°02' W 071°38'0 1.6
2018-Feb-22 03:31S 33°02' W 071°37'0 0.0
2018-Feb-22 02:56S 33°02' W 071°37'0 0.0
2018-Feb-22 01:44S 33°02' W 071°37'0 0.0
2018-Feb-22 01:30S 33°02' W 071°37'0 0.0
2018-Feb-22 00:07S 33°02' W 071°37'0 0.0
2018-Feb-22 00:00S 33°02' W 071°37'0 0.0
2018-Feb-21 23:24S 33°02' W 071°37'0 0.0
2018-Feb-21 23:01S 33°02' W 071°37'0 0.0
2018-Feb-21 22:31S 33°02' W 071°37'0 0.0
2018-Feb-21 22:01S 33°02' W 071°37'0 0.0
2018-Feb-21 21:30S 33°02' W 071°37'0 0.0
2018-Feb-21 21:00S 33°02' W 071°37'0 0.0
2018-Feb-21 20:27S 33°02' W 071°37'0 0.0
2018-Feb-21 19:58S 33°02' W 071°37'0 0.0
2018-Feb-21 19:22S 33°02' W 071°37'0 0.0
2018-Feb-21 18:50S 33°02' W 071°37'0 0.0
2018-Feb-21 18:29S 33°02' W 071°37'1 1.3
2018-Feb-21 18:00S 33°02' W 071°38'1 1.5
2018-Feb-21 17:30S 33°02' W 071°37'1 0.9
2018-Feb-21 16:50S 33°02' W 071°37'0 0.8
2018-Feb-21 16:30S 33°02' W 071°37'0 0.0
2018-Feb-21 16:00S 33°02' W 071°37'0 0.0
2018-Feb-21 15:31S 33°02' W 071°37'0 0.0
2018-Feb-21 15:00S 33°02' W 071°37'0 0.0
2018-Feb-21 14:30S 33°02' W 071°37'0 0.0
2018-Feb-21 14:01S 33°02' W 071°37'0 0.0
2018-Feb-21 13:30S 33°02' W 071°37'0 0.0
2018-Feb-21 13:00S 33°02' W 071°37'0 0.0
2018-Feb-21 12:30S 33°02' W 071°37'0 0.0
2018-Feb-21 12:01S 33°02' W 071°37'0 0.0
2018-Feb-21 11:28S 33°02' W 071°37'0 0.0
2018-Feb-21 10:59S 33°02' W 071°37'0 0.0
2018-Feb-21 10:30S 33°02' W 071°37'0 0.0
2018-Feb-21 09:50S 33°02' W 071°37'0 0.0
2018-Feb-21 09:29S 33°02' W 071°37'0 0.0
2018-Feb-21 08:58S 33°02' W 071°37'0 0.0
2018-Feb-21 07:41S 33°02' W 071°37'0 0.0
2018-Feb-21 07:30S 33°02' W 071°37'0 0.0
2018-Feb-21 05:46S 33°02' W 071°37'0 0.0
2018-Feb-21 05:26S 33°02' W 071°37'0 0.0
2018-Feb-21 02:53S 33°02' W 071°37'0 0.0
2018-Feb-21 02:21S 33°02' W 071°37'0 0.0
2018-Feb-21 00:10S 33°02' W 071°37'0 0.0
2018-Feb-20 21:25S 33°02' W 071°37'0 0.0
2018-Feb-20 20:59S 33°02' W 071°37'0 0.0
2018-Feb-20 20:29S 33°02' W 071°37'0 0.0
2018-Feb-20 19:59S 33°02' W 071°37'0 0.0
2018-Feb-20 19:29S 33°02' W 071°37'0 0.0
2018-Feb-20 18:58S 33°02' W 071°37'1 0.6
2018-Feb-20 17:31S 33°02' W 071°37'0 7.5
2018-Feb-20 17:31S 33°02' W 071°36'1 0.8
2018-Feb-20 16:22S 33°02' W 071°37'0 0.6
2018-Feb-20 15:53S 33°02' W 071°37'0 0.5
2018-Feb-20 15:18S 33°02' W 071°37'0 0.1
2018-Feb-20 14:54S 33°02' W 071°37'0 0.0
2018-Feb-20 14:30S 33°02' W 071°37'0 0.0
2018-Feb-20 13:50S 33°02' W 071°37'0 0.0
2018-Feb-20 13:26S 33°02' W 071°37'0 0.0
2018-Feb-20 12:44S 33°02' W 071°37'0 0.0
2018-Feb-20 12:28S 33°02' W 071°37'0 0.0
2018-Feb-20 11:44S 33°02' W 071°37'0 0.0
2018-Feb-20 11:28S 33°02' W 071°37'0 0.0
2018-Feb-20 10:57S 33°02' W 071°37'1 0.6
2018-Feb-20 09:44S 33°02' W 071°37'1 1.6
2018-Feb-20 09:25S 33°02' W 071°37'0 0.1
2018-Feb-20 08:55S 33°02' W 071°37'0 0.0
2018-Feb-20 04:30S 33°02' W 071°37'1 1.2
2018-Feb-20 04:00S 33°02' W 071°37'4 8.1
2018-Feb-20 03:30S 32°58' W 071°37'4 8.4
2018-Feb-20 03:01S 32°54' W 071°36'4 8.4
2018-Feb-20 02:31S 32°50' W 071°35'4 8.2
2018-Feb-20 01:59S 32°45' W 071°33'2 2.2
2018-Feb-20 01:02S 32°46' W 071°31'0 0.1
2018-Feb-20 00:59S 32°46' W 071°31'0 0.0
2018-Feb-19 23:40S 32°46' W 071°31'0 0.0
2018-Feb-19 23:23S 32°46' W 071°31'0 0.0
2018-Feb-19 22:59S 32°46' W 071°31'0 0.0
2018-Feb-19 22:18S 32°46' W 071°31'0 0.0
2018-Feb-19 21:09S 32°46' W 071°31'0 0.0
2018-Feb-19 16:35S 32°46' W 071°31'0 0.0
2018-Feb-19 15:05S 32°46' W 071°31'0 0.0
2018-Feb-19 14:52S 32°46' W 071°31'0 0.0
2018-Feb-19 14:28S 32°46' W 071°31'0 0.0
2018-Feb-19 12:53S 32°46' W 071°31'0 0.0
2018-Feb-19 12:30S 32°46' W 071°31'0 0.0
2018-Feb-19 11:44S 32°46' W 071°31'2 1.6
2018-Feb-19 10:45S 32°46' W 071°30'2 1.4
2018-Feb-19 09:34S 32°46' W 071°31'0 0.1
2018-Feb-19 09:28S 32°46' W 071°31'0 0.0
2018-Feb-19 08:59S 32°46' W 071°31'0 0.0
2018-Feb-19 08:07S 32°46' W 071°31'0 0.0
2018-Feb-19 07:38S 32°46' W 071°31'0 0.0
2018-Feb-19 07:30S 32°46' W 071°31'0 0.0
2018-Feb-19 06:58S 32°46' W 071°31'0 0.0
2018-Feb-19 06:23S 32°46' W 071°31'0 0.0
2018-Feb-19 05:47S 32°46' W 071°31'0 0.0
2018-Feb-19 03:04S 32°46' W 071°31'0 0.0
2018-Feb-19 02:49S 32°46' W 071°31'0 0.0
2018-Feb-19 02:28S 32°46' W 071°31'0 0.0
2018-Feb-19 01:55S 32°46' W 071°31'0 0.0
2018-Feb-19 01:28S 32°46' W 071°31'0 0.0
2018-Feb-19 00:59S 32°46' W 071°31'0 0.0
2018-Feb-19 00:31S 32°46' W 071°31'0 0.0
2018-Feb-18 23:59S 32°46' W 071°31'0 0.0
2018-Feb-18 23:11S 32°46' W 071°31'0 0.0
2018-Feb-18 22:57S 32°46' W 071°31'0 0.0
2018-Feb-18 20:40S 32°46' W 071°31'0 0.0
2018-Feb-18 20:30S 32°46' W 071°31'4 7.4
2018-Feb-18 19:57S 32°46' W 071°36'5 6.9
2018-Feb-18 19:12S 32°46' W 071°30'0 0.4
2018-Feb-18 19:00S 32°46' W 071°30'0 0.3
2018-Feb-18 18:30S 32°46' W 071°30'1 1.9
2018-Feb-18 17:58S 32°46' W 071°31'0 0.0
2018-Feb-18 17:31S 32°46' W 071°31'0 0.0
2018-Feb-18 16:59S 32°46' W 071°31'0 0.0
2018-Feb-18 16:31S 32°46' W 071°31'0 0.0
2018-Feb-18 15:59S 32°46' W 071°31'0 0.0
2018-Feb-18 15:28S 32°46' W 071°31'0 0.0
2018-Feb-18 15:00S 32°46' W 071°31'0 0.0
2018-Feb-18 14:30S 32°46' W 071°31'0 0.0
2018-Feb-18 14:01S 32°46' W 071°31'0 0.0
2018-Feb-18 13:30S 32°46' W 071°31'0 0.0
2018-Feb-18 12:58S 32°46' W 071°31'0 0.0
2018-Feb-18 12:17S 32°46' W 071°31'0 0.1
2018-Feb-18 12:00S 32°46' W 071°31'0 0.0
2018-Feb-18 11:31S 32°46' W 071°31'1 2.2
2018-Feb-18 10:57S 32°45' W 071°30'0 0.0
2018-Feb-18 10:31S 32°45' W 071°30'1 0.5
2018-Feb-18 08:10S 32°46' W 071°31'0 0.0
2018-Feb-18 07:59S 32°46' W 071°31'0 0.0
2018-Feb-18 07:30S 32°46' W 071°31'0 0.0
2018-Feb-18 07:01S 32°46' W 071°31'0 0.0
2018-Feb-18 03:19S 32°46' W 071°31'0 0.0
2018-Feb-18 03:00S 32°46' W 071°31'0 0.0
2018-Feb-17 23:10S 32°46' W 071°31'0 0.0
2018-Feb-17 22:07S 32°46' W 071°31'0 0.0
2018-Feb-17 19:48S 32°46' W 071°31'0 0.0
2018-Feb-17 19:20S 32°46' W 071°31'0 0.0
2018-Feb-17 18:59S 32°46' W 071°31'0 0.0
2018-Feb-17 18:29S 32°46' W 071°31'0 0.0
2018-Feb-17 18:00S 32°46' W 071°31'0 0.0
2018-Feb-17 17:30S 32°46' W 071°31'0 0.0
2018-Feb-17 16:44S 32°46' W 071°31'0 0.0
2018-Feb-17 16:28S 32°46' W 071°31'0 0.0
2018-Feb-17 16:00S 32°46' W 071°31'0 0.0
2018-Feb-17 15:30S 32°46' W 071°31'0 0.0
2018-Feb-17 14:51S 32°46' W 071°31'0 0.0
2018-Feb-17 14:24S 32°46' W 071°31'0 0.0
2018-Feb-17 13:55S 32°46' W 071°31'0 0.0
2018-Feb-17 13:24S 32°46' W 071°31'1 0.8
2018-Feb-17 11:49S 32°45' W 071°30'0 0.9
2018-Feb-17 11:30S 32°46' W 071°30'1 1.7
2018-Feb-17 11:00S 32°45' W 071°31'1 2.2
2018-Feb-17 10:30S 32°46' W 071°31'0 0.0
2018-Feb-17 10:00S 32°46' W 071°31'0 0.0
2018-Feb-17 09:29S 32°46' W 071°31'0 0.0
2018-Feb-17 09:00S 32°46' W 071°31'0 0.0
2018-Feb-17 06:50S 32°46' W 071°31'0 0.0
2018-Feb-17 05:46S 32°46' W 071°31'1 0.1
2018-Feb-16 21:58S 32°46' W 071°30'1 1.2
2018-Feb-16 21:24S 32°45' W 071°30'1 1.9
2018-Feb-16 21:00S 32°45' W 071°30'0 0.1
2018-Feb-16 19:51S 32°45' W 071°30'0 0.1
2018-Feb-16 19:22S 32°45' W 071°30'1 0.5
2018-Feb-16 17:24S 32°46' W 071°30'1 2.7
2018-Feb-16 17:00S 32°46' W 071°31'1 0.2
2018-Feb-16 14:16S 32°45' W 071°31'1 3.2
2018-Feb-16 14:00S 32°45' W 071°32'1 1.5
2018-Feb-16 13:22S 32°46' W 071°31'0 1.2
2018-Feb-16 12:58S 32°46' W 071°31'0 0.0
2018-Feb-16 12:27S 32°46' W 071°31'0 0.0
2018-Feb-16 12:00S 32°46' W 071°31'0 0.0
2018-Feb-16 11:26S 32°46' W 071°31'0 0.0
2018-Feb-16 11:00S 32°46' W 071°31'0 0.0
2018-Feb-16 10:29S 32°46' W 071°31'0 0.0
2018-Feb-16 02:18S 32°46' W 071°31'1 0.3
2018-Feb-15 23:13S 32°45' W 071°30'0 0.2
2018-Feb-15 23:00S 32°45' W 071°30'0 0.1
2018-Feb-15 22:29S 32°45' W 071°30'0 0.2
2018-Feb-15 22:00S 32°45' W 071°30'0 0.0
2018-Feb-15 21:27S 32°45' W 071°30'0 0.2
2018-Feb-15 21:00S 32°45' W 071°30'0 0.2
2018-Feb-15 20:27S 32°45' W 071°30'0 0.1
2018-Feb-15 19:59S 32°45' W 071°30'0 0.1
2018-Feb-15 19:30S 32°45' W 071°30'0 0.2
2018-Feb-15 18:58S 32°45' W 071°30'0 0.2
2018-Feb-15 18:30S 32°45' W 071°30'0 0.1
2018-Feb-15 17:59S 32°45' W 071°30'0 0.0
2018-Feb-15 17:28S 32°45' W 071°30'0 0.0
2018-Feb-15 16:58S 32°45' W 071°30'0 0.1
2018-Feb-15 16:30S 32°45' W 071°30'0 0.1
2018-Feb-15 15:58S 32°45' W 071°30'0 0.0
2018-Feb-15 15:30S 32°45' W 071°30'0 0.1
2018-Feb-15 15:00S 32°45' W 071°30'0 0.1
2018-Feb-15 14:29S 32°45' W 071°30'0 0.1
2018-Feb-15 14:00S 32°45' W 071°30'0 0.1
2018-Feb-15 13:31S 32°45' W 071°30'0 0.2
2018-Feb-15 13:00S 32°45' W 071°30'0 0.1
2018-Feb-15 12:30S 32°45' W 071°30'0 0.2
2018-Feb-15 11:44S 32°45' W 071°31'0 1.0
2018-Feb-15 11:27S 32°45' W 071°30'2 2.9
2018-Feb-15 10:55S 32°46' W 071°31'0 0.0
2018-Feb-15 10:30S 32°46' W 071°31'4 0.6
2018-Feb-15 02:42S 32°48' W 071°36'2 9.0
2018-Feb-15 02:29S 32°50' W 071°36'4 9.2
2018-Feb-15 02:00S 32°55' W 071°37'5 9.6
2018-Feb-15 01:28S 32°60' W 071°37'2 3.5
2018-Feb-15 00:52S 33°02' W 071°38'0 0.4
2018-Feb-15 00:21S 33°02' W 071°37'0 0.9
2018-Feb-14 23:49S 33°02' W 071°37'0 0.1
2018-Feb-14 23:29S 33°02' W 071°37'0 0.0
2018-Feb-14 23:00S 33°02' W 071°37'0 0.0
2018-Feb-14 22:30S 33°02' W 071°37'0 0.0
2018-Feb-14 22:00S 33°02' W 071°37'0 0.0
2018-Feb-14 21:28S 33°02' W 071°37'0 0.0
2018-Feb-14 21:00S 33°02' W 071°37'1 1.0
2018-Feb-14 20:28S 33°02' W 071°37'0 0.6
2018-Feb-14 19:56S 33°02' W 071°37'0 0.9
2018-Feb-14 19:30S 33°02' W 071°37'0 0.1
2018-Feb-14 18:55S 33°02' W 071°37'0 0.0
2018-Feb-14 18:30S 33°02' W 071°37'0 0.0
2018-Feb-14 18:00S 33°02' W 071°37'0 0.0
2018-Feb-14 17:30S 33°02' W 071°37'0 0.8
2018-Feb-14 16:58S 33°02' W 071°38'3 5.3
2018-Feb-14 16:30S 32°60' W 071°37'4 8.8
2018-Feb-14 16:00S 32°55' W 071°36'4 8.8
2018-Feb-14 15:30S 32°51' W 071°35'5 8.9
2018-Feb-14 14:59S 32°47' W 071°34'3 5.1
2018-Feb-14 14:30S 32°46' W 071°31'1 1.9
2018-Feb-14 14:00S 32°46' W 071°31'0 0.0
2018-Feb-14 13:30S 32°46' W 071°31'0 0.0
2018-Feb-14 13:00S 32°46' W 071°31'1 1.4
2018-Feb-14 12:29S 32°46' W 071°31'1 1.3
2018-Feb-14 12:00S 32°46' W 071°31'0 0.4
2018-Feb-14 11:30S 32°46' W 071°31'0 0.0
2018-Feb-14 11:00S 32°46' W 071°31'0 0.0
2018-Feb-14 10:30S 32°46' W 071°31'0 0.0
2018-Feb-14 10:00S 32°46' W 071°31'0 0.0
2018-Feb-14 09:26S 32°46' W 071°31'0 0.0
2018-Feb-14 09:00S 32°46' W 071°31'0 0.0
2018-Feb-14 08:30S 32°46' W 071°31'0 0.0
2018-Feb-14 07:51S 32°46' W 071°31'0 0.0
2018-Feb-14 07:30S 32°46' W 071°31'0 0.0
2018-Feb-14 06:59S 32°46' W 071°31'0 0.0
2018-Feb-14 06:28S 32°46' W 071°31'0 0.0
2018-Feb-14 05:59S 32°46' W 071°31'0 0.0
2018-Feb-14 05:29S 32°46' W 071°31'0 0.0
2018-Feb-14 05:00S 32°46' W 071°31'0 0.0
2018-Feb-14 04:30S 32°46' W 071°31'0 0.0
2018-Feb-14 04:00S 32°46' W 071°31'0 0.0
2018-Feb-14 03:30S 32°46' W 071°31'0 0.0
2018-Feb-14 02:57S 32°46' W 071°31'0 0.0
2018-Feb-14 02:30S 32°46' W 071°31'0 0.0
2018-Feb-14 01:58S 32°46' W 071°31'0 0.0
2018-Feb-14 01:30S 32°46' W 071°31'0 0.0
2018-Feb-14 01:00S 32°46' W 071°31'0 0.0
2018-Feb-14 00:27S 32°46' W 071°31'0 0.0
2018-Feb-14 00:01S 32°46' W 071°31'0 0.0
2018-Feb-13 23:22S 32°46' W 071°31'0 0.0
2018-Feb-13 23:00S 32°46' W 071°31'0 0.0
2018-Feb-13 22:30S 32°46' W 071°31'0 0.0
2018-Feb-13 22:00S 32°46' W 071°31'0 0.0
2018-Feb-13 21:30S 32°46' W 071°31'0 0.0
2018-Feb-13 20:57S 32°46' W 071°31'0 0.0
2018-Feb-13 20:16S 32°46' W 071°31'0 0.0
2018-Feb-13 20:00S 32°46' W 071°31'  

Dump ship's entire track history